Time;durP1;ratioP1;P1;durP2;ratioP2;P2;SDS_P1;SDS_P2;PMS_P1;PMS_P2;Temp;Humidity;BMP_temperature;BMP_pressure;BME280_temperature;BME280_humidity;BME280_pressure;Samples;Min_cycle;Max_cycle;Signal;HPM_P1;HPM_P2
2022/02/28 00:02:10;;;;;;;12.68;7.50;;;6.60;80.50;;;;;;5133558;27;20029;-77
2022/02/28 00:04:35;;;;;;;9.52;6.13;;;6.60;80.50;;;;;;5132580;27;20031;-77
2022/02/28 00:07:01;;;;;;;15.15;7.40;;;6.60;80.70;;;;;;5132431;27;20023;-77
2022/02/28 00:09:27;;;;;;;10.35;6.97;;;6.60;81.00;;;;;;5132830;27;20031;-77
2022/02/28 00:11:52;;;;;;;11.18;6.50;;;6.60;80.90;;;;;;5133047;27;20027;-77
2022/02/28 00:14:18;;;;;;;10.88;6.63;;;6.60;81.00;;;;;;5134659;27;20027;-76
2022/02/28 00:16:43;;;;;;;12.48;7.38;;;6.60;80.70;;;;;;5132714;27;20031;-77
2022/02/28 00:19:09;;;;;;;11.98;6.90;;;6.60;80.60;;;;;;5132332;27;20102;-76
2022/02/28 00:21:35;;;;;;;12.05;6.75;;;6.60;80.80;;;;;;5132224;27;20023;-77
2022/02/28 00:24:00;;;;;;;10.82;6.10;;;6.60;81.30;;;;;;5139878;27;20023;-77
2022/02/28 00:26:26;;;;;;;9.73;6.18;;;6.70;81.60;;;;;;5134387;27;20376;-77
2022/02/28 00:28:52;;;;;;;12.88;6.07;;;6.70;81.30;;;;;;5132331;27;20055;-77
2022/02/28 00:31:18;;;;;;;9.80;5.85;;;6.70;81.50;;;;;;5130641;27;20102;-77
2022/02/28 00:33:44;;;;;;;8.07;5.53;;;6.70;81.90;;;;;;5132144;27;20403;-77
2022/02/28 00:36:10;;;;;;;6.65;4.38;;;6.70;81.40;;;;;;5130442;27;20376;-77
2022/02/28 00:38:36;;;;;;;7.32;5.13;;;6.70;82.40;;;;;;5134481;27;20041;-77
2022/02/28 00:41:01;;;;;;;9.70;5.15;;;6.70;83.70;;;;;;5131868;27;20042;-77
2022/02/28 00:43:27;;;;;;;8.30;5.18;;;6.80;83.40;;;;;;5113676;27;20035;-77
2022/02/28 00:45:53;;;;;;;8.27;5.10;;;6.90;84.00;;;;;;5132007;27;20046;-77
2022/02/28 00:48:19;;;;;;;11.00;5.43;;;7.00;83.80;;;;;;5132184;27;20163;-77
2022/02/28 00:50:45;;;;;;;10.57;4.95;;;7.10;83.40;;;;;;5133079;27;20391;-77
2022/02/28 00:53:11;;;;;;;10.02;4.95;;;7.20;83.00;;;;;;5132750;27;20015;-76
2022/02/28 00:55:37;;;;;;;10.80;5.28;;;7.30;82.70;;;;;;5131725;27;20031;-76
2022/02/28 00:58:03;;;;;;;9.32;5.88;;;7.30;82.10;;;;;;5113260;27;20118;-76
2022/02/28 01:00:29;;;;;;;12.38;6.07;;;7.40;82.20;;;;;;5113569;27;20027;-76
2022/02/28 01:02:56;;;;;;;10.63;4.97;;;7.40;82.10;;;;;;5131740;27;20012;-76
2022/02/28 01:05:22;;;;;;;10.30;5.47;;;7.40;81.90;;;;;;5133520;27;20134;-76
2022/02/28 01:07:48;;;;;;;11.45;5.30;;;7.40;81.80;;;;;;5123948;27;20081;-76
2022/02/28 01:10:15;;;;;;;10.77;5.43;;;7.50;82.20;;;;;;5122643;27;20057;-76
2022/02/28 01:12:41;;;;;;;10.82;5.63;;;7.50;82.30;;;;;;5131724;27;20109;-76
2022/02/28 01:15:10;;;;;;;11.02;5.38;;;7.60;82.50;;;;;;5115130;27;20107;-76
2022/02/28 01:17:36;;;;;;;9.85;5.60;;;7.60;82.00;;;;;;5129426;27;20029;-76
2022/02/28 01:20:04;;;;;;;8.93;5.38;;;7.60;82.20;;;;;;5131474;27;20106;-76
2022/02/28 01:22:30;;;;;;;7.50;4.80;;;7.60;82.10;;;;;;5113128;27;20475;-76
2022/02/28 01:24:56;;;;;;;8.60;5.00;;;7.70;81.90;;;;;;5131507;27;20060;-77
2022/02/28 01:27:22;;;;;;;8.88;5.32;;;7.60;81.90;;;;;;5131710;27;20019;-76
2022/02/28 01:29:48;;;;;;;9.80;5.00;;;7.70;82.40;;;;;;5132373;27;20019;-76
2022/02/28 01:32:14;;;;;;;7.65;5.28;;;7.70;82.20;;;;;;5133013;27;20023;-76
2022/02/28 01:34:40;;;;;;;8.82;5.07;;;7.70;81.90;;;;;;5130977;27;20479;-76
2022/02/28 01:37:06;;;;;;;8.40;5.15;;;7.70;81.90;;;;;;5131388;27;20439;-76
2022/02/28 01:39:31;;;;;;;10.27;5.63;;;7.70;82.00;;;;;;5113026;27;20038;-76
2022/02/28 01:41:57;;;;;;;10.25;5.22;;;7.80;82.00;;;;;;5131298;27;20149;-76
2022/02/28 01:44:23;;;;;;;9.10;5.32;;;7.80;82.10;;;;;;5133322;27;20043;-76
2022/02/28 01:46:48;;;;;;;9.25;5.47;;;7.80;82.10;;;;;;5131233;27;20372;-77
2022/02/28 01:49:14;;;;;;;10.07;5.28;;;7.90;81.70;;;;;;5112339;28;20460;-76
2022/02/28 01:51:40;;;;;;;7.53;5.25;;;7.80;81.60;;;;;;5112934;28;20487;-76
2022/02/28 01:54:07;;;;;;;10.32;5.28;;;7.90;81.20;;;;;;5130203;27;20468;-76
2022/02/28 01:56:33;;;;;;;11.15;5.60;;;7.80;81.20;;;;;;5133121;27;20050;-76
2022/02/28 01:58:59;;;;;;;7.55;4.97;;;7.80;81.20;;;;;;5130927;27;20046;-76
2022/02/28 02:01:25;;;;;;;10.88;5.22;;;7.80;81.50;;;;;;5131075;27;20543;-76
2022/02/28 02:03:50;;;;;;;10.10;5.10;;;7.80;81.20;;;;;;5130670;28;20107;-76
2022/02/28 02:06:19;;;;;;;10.80;5.43;;;7.90;81.30;;;;;;5131033;27;20062;-76
2022/02/28 02:08:45;;;;;;;12.02;5.25;;;7.90;81.00;;;;;;5132547;27;20088;-76
2022/02/28 02:11:11;;;;;;;11.68;5.03;;;7.80;81.20;;;;;;5131784;27;20508;-76
2022/02/28 02:13:37;;;;;;;10.45;5.38;;;7.80;81.40;;;;;;5130865;27;20058;-76
2022/02/28 02:16:03;;;;;;;10.73;4.80;;;7.80;81.40;;;;;;5112432;28;20038;-76
2022/02/28 02:18:28;;;;;;;13.95;5.47;;;7.80;81.40;;;;;;5130640;27;20072;-76
2022/02/28 02:20:54;;;;;;;13.65;5.82;;;7.80;82.60;;;;;;5131664;27;20031;-76
2022/02/28 02:23:24;;;;;;;13.15;5.65;;;7.70;81.80;;;;;;5137225;27;20414;-75
2022/02/28 02:25:50;;;;;;;12.13;5.82;;;7.70;81.90;;;;;;5134824;27;20019;-76
2022/02/28 02:28:17;;;;;;;12.82;6.00;;;7.80;82.40;;;;;;5116302;27;20045;-78
2022/02/28 02:30:51;;;;;;;16.70;6.65;;;7.80;82.50;;;;;;5134935;27;20023;-78
2022/02/28 02:33:18;;;;;;;15.27;6.05;;;7.70;82.50;;;;;;5133202;27;20119;-76
2022/02/28 02:35:55;;;;;;;17.15;5.97;;;7.80;83.20;;;;;;5136055;27;20042;-75
2022/02/28 02:38:21;;;;;;;12.80;5.90;;;7.80;83.50;;;;;;5134946;27;20098;-78
2022/02/28 02:40:47;;;;;;;17.95;6.32;;;7.80;83.90;;;;;;5134650;27;20031;-75
2022/02/28 02:43:14;;;;;;;13.95;5.78;;;7.80;83.90;;;;;;5134510;27;20031;-75
2022/02/28 02:45:39;;;;;;;19.08;5.97;;;7.80;83.90;;;;;;5134352;27;20114;-76
2022/02/28 02:48:22;;;;;;;12.20;5.35;;;7.80;84.10;;;;;;5134581;27;20184;-76
2022/02/28 02:50:49;;;;;;;15.77;5.90;;;7.70;84.10;;;;;;5114625;27;20020;-76
2022/02/28 02:53:15;;;;;;;13.73;5.75;;;7.70;85.40;;;;;;5135801;27;20066;-76
2022/02/28 02:55:41;;;;;;;14.00;5.95;;;7.70;84.40;;;;;;5134296;27;20059;-76
2022/02/28 02:58:07;;;;;;;12.65;5.53;;;7.70;84.60;;;;;;5134338;27;20028;-76
2022/02/28 03:00:33;;;;;;;12.93;6.10;;;7.70;84.60;;;;;;5134083;27;20083;-76
2022/02/28 03:02:59;;;;;;;11.98;5.28;;;7.70;85.00;;;;;;5134282;27;20864;-75
2022/02/28 03:05:25;;;;;;;14.43;6.28;;;7.70;85.30;;;;;;5116856;27;20092;-78
2022/02/28 03:07:51;;;;;;;15.73;5.68;;;7.70;85.40;;;;;;5133858;27;20529;-78
2022/02/28 03:10:16;;;;;;;14.25;5.40;;;7.70;85.90;;;;;;5114968;27;20490;-77
2022/02/28 03:12:42;;;;;;;12.55;5.32;;;7.60;86.70;;;;;;5132170;27;20019;-78
2022/02/28 03:15:08;;;;;;;13.70;5.53;;;7.60;85.80;;;;;;5133194;27;20069;-77
2022/02/28 03:17:34;;;;;;;15.55;5.80;;;7.60;86.10;;;;;;5135410;27;20027;-75
2022/02/28 03:20:00;;;;;;;14.25;5.82;;;7.70;86.30;;;;;;5133524;27;20031;-75
2022/02/28 03:22:26;;;;;;;15.85;5.72;;;7.60;86.10;;;;;;5115376;27;20020;-76
2022/02/28 03:24:52;;;;;;;15.60;5.85;;;7.60;86.90;;;;;;5133806;27;20498;-76
2022/02/28 03:27:17;;;;;;;13.43;5.72;;;7.70;87.00;;;;;;5133883;27;20023;-75
2022/02/28 03:29:43;;;;;;;15.75;6.07;;;7.70;87.50;;;;;;5134801;27;20470;-75
2022/02/28 03:32:09;;;;;;;12.52;5.55;;;7.70;87.00;;;;;;5134676;27;20034;-75
2022/02/28 03:34:35;;;;;;;10.82;5.00;;;7.70;86.80;;;;;;5132801;27;20035;-76
2022/02/28 03:37:00;;;;;;;12.98;5.25;;;7.70;87.10;;;;;;5133685;27;20027;-76
2022/02/28 03:39:26;;;;;;;15.07;5.95;;;7.70;87.00;;;;;;5133604;27;20030;-76
2022/02/28 03:41:55;;;;;;;14.88;5.93;;;7.70;87.20;;;;;;5134040;27;20019;-75
2022/02/28 03:44:22;;;;;;;17.88;6.35;;;7.70;87.50;;;;;;5133053;27;20119;-76
2022/02/28 03:46:50;;;;;;;11.55;5.47;;;7.70;87.70;;;;;;5133399;27;20034;-75
2022/02/28 03:49:17;;;;;;;16.05;5.78;;;7.70;87.50;;;;;;5114954;27;20025;-75
2022/02/28 03:51:43;;;;;;;14.00;6.00;;;7.70;87.30;;;;;;5113399;27;20015;-75
2022/02/28 03:54:11;;;;;;;17.38;6.55;;;7.80;88.40;;;;;;5114904;27;20093;-76
2022/02/28 03:56:37;;;;;;;12.63;5.85;;;7.80;87.50;;;;;;5131164;27;20028;-75
2022/02/28 03:59:03;;;;;;;16.73;5.93;;;7.80;87.20;;;;;;5132985;27;20396;-76
2022/02/28 04:01:29;;;;;;;15.57;6.22;;;7.80;87.50;;;;;;5133195;27;20019;-76
2022/02/28 04:03:55;;;;;;;13.80;5.72;;;7.80;87.50;;;;;;5132969;27;20016;-75
2022/02/28 04:06:20;;;;;;;12.35;5.43;;;7.80;87.30;;;;;;5133388;27;20079;-75
2022/02/28 04:08:46;;;;;;;12.27;5.22;;;7.80;87.30;;;;;;5134448;27;20415;-75
2022/02/28 04:11:13;;;;;;;12.27;6.03;;;7.80;87.30;;;;;;5133976;27;20030;-75
2022/02/28 04:13:38;;;;;;;12.40;5.97;;;7.80;88.00;;;;;;5114062;27;20101;-76
2022/02/28 04:16:04;;;;;;;12.20;6.10;;;7.80;87.50;;;;;;5132707;27;20038;-76
2022/02/28 04:18:30;;;;;;;12.15;5.80;;;7.80;87.80;;;;;;5132820;27;20015;-76
2022/02/28 04:20:56;;;;;;;13.73;5.60;;;7.80;87.90;;;;;;5132792;27;20465;-76
2022/02/28 04:23:22;;;;;;;11.20;5.22;;;7.80;88.80;;;;;;5134871;27;20028;-76
2022/02/28 04:25:48;;;;;;;10.32;5.18;;;7.80;88.30;;;;;;5132655;27;20497;-76
2022/02/28 04:28:13;;;;;;;10.00;5.18;;;7.80;88.50;;;;;;5132267;27;20448;-76
2022/02/28 04:30:39;;;;;;;8.05;4.47;;;7.80;88.40;;;;;;5112885;27;20487;-76
2022/02/28 04:33:05;;;;;;;7.57;3.97;;;7.80;89.60;;;;;;5114232;27;20062;-76
2022/02/28 04:35:31;;;;;;;6.78;4.15;;;7.80;89.20;;;;;;5134513;27;20031;-76
2022/02/28 04:37:57;;;;;;;5.20;3.60;;;7.80;88.90;;;;;;5132483;27;20463;-76
2022/02/28 04:40:22;;;;;;;5.05;3.30;;;7.80;89.50;;;;;;5132317;27;20023;-76
2022/02/28 04:42:48;;;;;;;5.68;3.67;;;7.80;89.60;;;;;;5131854;27;20023;-76
2022/02/28 04:45:14;;;;;;;7.20;3.70;;;7.80;90.10;;;;;;5131564;27;20143;-76
2022/02/28 04:47:39;;;;;;;6.78;3.70;;;7.80;89.90;;;;;;5134155;27;20049;-76
2022/02/28 04:50:05;;;;;;;6.28;3.70;;;7.80;89.90;;;;;;5132444;27;20479;-76
2022/02/28 04:52:31;;;;;;;6.45;3.80;;;7.80;90.10;;;;;;5132062;27;20019;-76
2022/02/28 04:54:57;;;;;;;4.80;3.53;;;7.80;90.00;;;;;;5131917;27;20514;-76
2022/02/28 04:57:22;;;;;;;5.68;3.80;;;7.80;89.80;;;;;;5111710;27;20087;-76
2022/02/28 04:59:48;;;;;;;7.03;3.83;;;7.80;90.10;;;;;;5114643;27;20107;-76
2022/02/28 05:02:14;;;;;;;8.15;4.35;;;7.80;89.70;;;;;;5133271;27;20026;-76
2022/02/28 05:04:39;;;;;;;5.60;3.85;;;7.80;89.50;;;;;;5131933;27;20035;-76
2022/02/28 05:07:05;;;;;;;5.90;3.63;;;7.80;89.80;;;;;;5131752;27;20044;-77
2022/02/28 05:09:30;;;;;;;5.65;3.75;;;7.90;90.00;;;;;;5130538;27;20119;-77
2022/02/28 05:11:56;;;;;;;5.78;3.60;;;7.90;90.10;;;;;;5131435;27;20023;-76
2022/02/28 05:14:21;;;;;;;5.85;4.07;;;7.90;89.80;;;;;;5133824;27;20110;-77
2022/02/28 05:16:47;;;;;;;6.43;3.45;;;7.90;90.30;;;;;;5131655;27;20023;-76
2022/02/28 05:19:13;;;;;;;9.23;4.45;;;7.80;90.20;;;;;;5131608;27;20019;-76
2022/02/28 05:21:38;;;;;;;5.47;3.80;;;7.90;90.30;;;;;;5131751;27;20027;-76
2022/02/28 05:24:04;;;;;;;5.40;3.67;;;7.90;90.20;;;;;;5131598;27;20490;-76
2022/02/28 05:26:30;;;;;;;6.03;3.75;;;7.90;90.10;;;;;;5133445;27;20023;-76
2022/02/28 05:28:56;;;;;;;6.45;4.20;;;7.90;90.10;;;;;;5131398;27;20463;-77
2022/02/28 05:31:21;;;;;;;6.53;4.05;;;7.90;90.00;;;;;;5131398;27;20025;-76
2022/02/28 05:33:47;;;;;;;6.40;4.22;;;7.90;90.40;;;;;;5131348;27;20491;-76
2022/02/28 05:36:13;;;;;;;6.38;4.18;;;7.90;90.30;;;;;;5131445;27;20035;-76
2022/02/28 05:38:38;;;;;;;6.18;4.10;;;7.90;90.30;;;;;;5133729;27;20026;-76
2022/02/28 05:41:04;;;;;;;6.75;3.92;;;7.90;90.40;;;;;;5130948;27;20522;-76
2022/02/28 05:43:30;;;;;;;6.78;4.70;;;7.90;90.50;;;;;;5131035;27;20114;-77
2022/02/28 05:45:56;;;;;;;6.93;4.70;;;7.90;90.30;;;;;;5112828;28;20164;-76
2022/02/28 05:48:22;;;;;;;6.15;4.22;;;7.90;90.30;;;;;;5129913;27;20035;-76
2022/02/28 05:50:47;;;;;;;6.70;4.47;;;7.90;90.60;;;;;;5132455;27;20460;-76
2022/02/28 05:53:13;;;;;;;9.75;4.93;;;7.90;90.40;;;;;;5132303;27;20096;-76
2022/02/28 05:55:38;;;;;;;7.53;4.90;;;7.80;91.00;;;;;;5130341;27;20042;-76
2022/02/28 05:58:04;;;;;;;7.30;4.72;;;7.80;91.10;;;;;;5131135;28;20495;-76
2022/02/28 06:00:30;;;;;;;6.80;4.60;;;7.80;91.00;;;;;;5131224;27;20019;-76
2022/02/28 06:02:56;;;;;;;6.30;4.28;;;7.80;90.90;;;;;;5131056;27;20054;-76
2022/02/28 06:05:21;;;;;;;9.55;5.07;;;7.70;90.80;;;;;;5133249;27;20491;-79
2022/02/28 06:07:48;;;;;;;7.22;4.80;;;7.80;90.70;;;;;;5130891;27;20106;-76
2022/02/28 06:10:14;;;;;;;6.78;4.35;;;7.80;90.70;;;;;;5130715;27;20027;-77
2022/02/28 06:12:40;;;;;;;7.70;4.55;;;7.80;90.80;;;;;;5112795;28;20027;-76
2022/02/28 06:15:07;;;;;;;8.40;4.93;;;7.80;90.90;;;;;;5130966;28;20031;-76
2022/02/28 06:17:32;;;;;;;8.98;5.00;;;7.80;90.80;;;;;;5133116;28;20019;-76
2022/02/28 06:19:58;;;;;;;8.88;4.85;;;7.80;90.80;;;;;;5130886;27;20030;-76
2022/02/28 06:22:25;;;;;;;7.93;5.10;;;7.80;90.90;;;;;;5130962;27;20023;-76
2022/02/28 06:24:51;;;;;;;8.35;5.07;;;7.80;90.80;;;;;;5130580;27;20463;-76
2022/02/28 06:27:17;;;;;;;9.18;5.63;;;7.80;90.90;;;;;;5111310;28;20034;-76
2022/02/28 06:29:43;;;;;;;10.05;5.50;;;7.80;90.80;;;;;;5132516;27;20479;-76
2022/02/28 06:32:09;;;;;;;9.60;5.97;;;7.80;90.70;;;;;;5113991;28;20023;-76
2022/02/28 06:34:35;;;;;;;10.93;6.07;;;7.80;90.90;;;;;;5111874;27;20066;-76
2022/02/28 06:37:01;;;;;;;9.55;5.55;;;7.80;90.60;;;;;;5130737;27;20479;-76
2022/02/28 06:39:27;;;;;;;9.80;5.72;;;7.80;90.70;;;;;;5130596;28;20054;-75
2022/02/28 06:41:54;;;;;;;10.38;6.07;;;7.80;90.90;;;;;;5112753;28;20021;-76
2022/02/28 06:44:20;;;;;;;10.30;6.03;;;7.80;91.20;;;;;;5132381;28;20488;-76
2022/02/28 06:46:45;;;;;;;11.20;6.75;;;7.70;91.00;;;;;;5130613;27;20023;-78
2022/02/28 06:49:11;;;;;;;12.10;6.85;;;7.70;91.10;;;;;;5130498;27;20081;-77
2022/02/28 06:51:36;;;;;;;11.13;6.15;;;7.70;91.30;;;;;;5128910;28;20019;-78
2022/02/28 06:54:02;;;;;;;14.35;7.10;;;7.60;91.20;;;;;;5130982;27;20036;-77
2022/02/28 06:56:29;;;;;;;10.57;6.05;;;7.70;91.20;;;;;;5131900;27;20399;-77
2022/02/28 06:58:55;;;;;;;14.43;7.45;;;7.70;91.30;;;;;;5129864;27;20030;-77
2022/02/28 07:01:21;;;;;;;12.90;6.40;;;7.60;91.40;;;;;;5129847;27;20106;-76
2022/02/28 07:03:46;;;;;;;11.10;6.45;;;7.60;91.70;;;;;;5129969;27;20027;-77
2022/02/28 07:06:22;;;;;;;11.20;6.32;;;7.60;91.10;;;;;;5111540;28;20027;-76
2022/02/28 07:08:48;;;;;;;10.10;5.63;;;7.60;91.40;;;;;;5130085;27;20049;-77
2022/02/28 07:11:15;;;;;;;15.73;6.93;;;7.60;91.40;;;;;;5134737;27;20058;-77
2022/02/28 07:13:40;;;;;;;9.88;5.95;;;7.60;91.50;;;;;;5133338;27;20015;-77
2022/02/28 07:16:07;;;;;;;10.10;5.75;;;7.60;91.50;;;;;;5133379;27;20532;-78
2022/02/28 07:18:32;;;;;;;11.43;6.28;;;7.60;91.60;;;;;;5124374;27;20019;-78
2022/02/28 07:20:58;;;;;;;11.80;5.97;;;7.50;91.40;;;;;;5144577;27;20138;-78
2022/02/28 07:23:24;;;;;;;9.65;5.65;;;7.60;91.60;;;;;;5134853;27;20030;-78
2022/02/28 07:25:50;;;;;;;11.70;6.28;;;7.50;91.20;;;;;;5133320;27;20027;-79
2022/02/28 07:28:15;;;;;;;10.68;5.90;;;7.50;91.10;;;;;;5132494;27;20043;-78
2022/02/28 07:30:41;;;;;;;10.93;5.50;;;7.50;91.30;;;;;;5132678;27;20067;-78
2022/02/28 07:33:07;;;;;;;10.95;5.75;;;7.50;91.20;;;;;;5116663;27;20384;-78
2022/02/28 07:35:33;;;;;;;6.32;4.28;;;7.50;91.70;;;;;;5134720;27;20023;-78
2022/02/28 07:37:59;;;;;;;7.00;4.15;;;7.50;91.70;;;;;;5113984;27;20487;-78
2022/02/28 07:40:25;;;;;;;5.75;4.30;;;7.60;91.60;;;;;;5112412;27;20035;-77
2022/02/28 07:42:51;;;;;;;5.18;3.50;;;7.50;91.60;;;;;;5114922;27;20035;-78
2022/02/28 07:45:16;;;;;;;6.20;3.85;;;7.60;91.50;;;;;;5114979;27;20031;-78
2022/02/28 07:47:42;;;;;;;7.57;4.18;;;7.60;91.50;;;;;;5134555;27;20475;-78
2022/02/28 07:50:08;;;;;;;7.47;4.20;;;7.70;91.50;;;;;;5132618;27;20027;-78
2022/02/28 07:52:34;;;;;;;6.70;3.78;;;7.70;91.70;;;;;;5113821;27;20038;-78
2022/02/28 07:55:00;;;;;;;4.90;3.30;;;7.60;91.80;;;;;;5131153;27;20043;-78
2022/02/28 07:57:26;;;;;;;5.47;3.47;;;7.70;91.60;;;;;;5115756;27;20079;-78
2022/02/28 07:59:52;;;;;;;6.68;3.80;;;7.70;91.80;;;;;;5131683;27;20030;-78
2022/02/28 08:02:17;;;;;;;5.57;3.60;;;7.80;91.50;;;;;;5114328;27;20041;-76
2022/02/28 08:04:43;;;;;;;4.90;3.40;;;7.90;91.40;;;;;;5124238;27;20080;-76
2022/02/28 08:07:09;;;;;;;4.75;3.03;;;7.90;91.40;;;;;;5122151;27;20051;-77
2022/02/28 08:09:34;;;;;;;5.70;3.80;;;7.90;91.40;;;;;;5129704;27;20110;-76
2022/02/28 08:12:00;;;;;;;5.28;3.65;;;8.00;91.70;;;;;;5113591;27;20035;-77
2022/02/28 08:14:26;;;;;;;4.70;3.28;;;8.10;91.90;;;;;;5133878;27;20023;-77
2022/02/28 08:16:52;;;;;;;7.60;4.00;;;8.10;91.50;;;;;;5131650;27;20035;-78
2022/02/28 08:19:17;;;;;;;7.13;4.13;;;8.30;91.60;;;;;;5113077;27;20163;-76
2022/02/28 08:21:44;;;;;;;9.05;5.22;;;8.30;91.70;;;;;;5131203;27;20685;-77
2022/02/28 08:24:10;;;;;;;10.65;5.30;;;8.40;91.50;;;;;;5115658;27;20028;-78
2022/02/28 08:26:35;;;;;;;13.05;7.07;;;8.40;91.30;;;;;;5133798;27;20042;-78
2022/02/28 08:29:01;;;;;;;10.32;6.45;;;8.40;91.00;;;;;;5114454;27;20011;-78
2022/02/28 08:31:27;;;;;;;15.15;6.88;;;8.40;91.00;;;;;;5131885;27;20027;-77
2022/02/28 08:33:52;;;;;;;11.27;6.18;;;8.40;91.10;;;;;;5130758;27;20019;-77
2022/02/28 08:36:18;;;;;;;12.20;6.15;;;8.40;90.90;;;;;;5131572;27;20031;-78
2022/02/28 08:38:44;;;;;;;11.45;6.50;;;8.40;90.90;;;;;;5114755;27;20376;-77
2022/02/28 08:41:10;;;;;;;11.52;5.80;;;8.40;90.90;;;;;;5130978;27;20138;-77
2022/02/28 08:43:36;;;;;;;13.02;6.72;;;8.40;90.80;;;;;;5130511;27;20559;-78
2022/02/28 08:46:02;;;;;;;9.98;6.25;;;8.50;91.40;;;;;;5112936;27;20113;-78
2022/02/28 08:48:27;;;;;;;14.80;7.15;;;8.50;90.90;;;;;;5130232;27;20421;-78
2022/02/28 08:50:53;;;;;;;12.80;6.47;;;8.50;90.80;;;;;;5131409;27;20042;-78
2022/02/28 08:53:20;;;;;;;16.60;7.85;;;8.50;90.70;;;;;;5131116;27;20121;-78
2022/02/28 08:55:46;;;;;;;15.68;7.50;;;8.40;90.60;;;;;;5130402;27;20031;-77
2022/02/28 08:58:12;;;;;;;14.80;7.60;;;8.40;90.80;;;;;;5130267;27;20026;-78
2022/02/28 09:00:38;;;;;;;19.63;8.82;;;8.50;91.30;;;;;;5130638;27;20034;-78
2022/02/28 09:03:06;;;;;;;17.25;9.15;;;8.60;90.80;;;;;;5130702;27;20042;-77
2022/02/28 09:05:33;;;;;;;17.48;9.43;;;8.60;90.90;;;;;;5115265;27;20123;-77
2022/02/28 09:07:59;;;;;;;14.73;8.75;;;8.60;90.70;;;;;;5112523;27;20019;-77
2022/02/28 09:10:24;;;;;;;20.02;10.27;;;8.70;90.90;;;;;;5130567;27;20158;-77
2022/02/28 09:12:50;;;;;;;19.10;10.00;;;8.70;91.30;;;;;;5111420;27;20019;-77
2022/02/28 09:15:16;;;;;;;21.88;11.20;;;8.80;91.00;;;;;;5129954;27;20067;-77
2022/02/28 09:17:41;;;;;;;22.48;12.80;;;8.80;91.00;;;;;;5131066;27;20034;-77
2022/02/28 09:20:08;;;;;;;21.60;12.05;;;8.80;91.10;;;;;;5129600;27;20045;-77
2022/02/28 09:22:33;;;;;;;20.90;11.18;;;8.90;90.90;;;;;;5130575;27;20050;-78
2022/02/28 09:24:59;;;;;;;23.65;12.45;;;9.00;91.10;;;;;;5130820;27;20514;-78
2022/02/28 09:27:26;;;;;;;21.92;11.60;;;9.10;90.90;;;;;;5130765;27;20510;-77
2022/02/28 09:29:52;;;;;;;14.30;8.90;;;9.20;90.70;;;;;;5113155;27;20050;-77
2022/02/28 09:32:18;;;;;;;12.48;7.18;;;9.20;90.80;;;;;;5131730;27;20057;-76
2022/02/28 09:34:44;;;;;;;9.82;5.97;;;9.30;90.70;;;;;;5111208;27;20088;-77
2022/02/28 09:37:11;;;;;;;10.18;5.38;;;9.30;90.70;;;;;;5128567;27;20027;-77
2022/02/28 09:39:36;;;;;;;7.05;4.80;;;9.40;90.70;;;;;;5128885;27;20046;-78
2022/02/28 09:42:04;;;;;;;6.22;4.38;;;9.50;90.50;;;;;;5129214;27;20055;-78
2022/02/28 09:44:31;;;;;;;7.85;4.30;;;9.50;90.60;;;;;;5130780;27;20067;-78
2022/02/28 09:46:58;;;;;;;7.15;4.43;;;9.50;90.40;;;;;;5129546;27;20030;-78
2022/02/28 09:49:24;;;;;;;10.40;4.20;;;9.50;90.30;;;;;;5117149;27;20046;-78
2022/02/28 09:51:49;;;;;;;7.88;4.00;;;9.50;90.70;;;;;;5131235;27;20365;-78
2022/02/28 09:54:15;;;;;;;7.65;4.30;;;9.60;90.70;;;;;;5137433;27;20064;-78
2022/02/28 09:56:41;;;;;;;7.03;4.20;;;9.60;90.70;;;;;;5133231;27;20062;-78
2022/02/28 09:59:07;;;;;;;5.80;3.85;;;9.70;90.60;;;;;;5114471;27;20384;-78
2022/02/28 10:01:32;;;;;;;6.50;3.75;;;9.70;90.80;;;;;;5131119;27;20019;-78
2022/02/28 10:03:58;;;;;;;7.15;4.10;;;9.80;91.10;;;;;;5131470;27;20027;-78
2022/02/28 10:06:24;;;;;;;6.20;3.95;;;9.90;90.80;;;;;;5117245;27;20479;-78
2022/02/28 10:08:52;;;;;;;8.93;4.72;;;9.90;90.70;;;;;;5114854;27;20558;-78
2022/02/28 10:11:30;;;;;;;6.30;4.15;;;10.00;90.70;;;;;;5133099;27;20453;-79
2022/02/28 10:14:03;;;;;;;6.72;4.03;;;10.10;90.40;;;;;;5130290;27;20053;-78
2022/02/28 10:16:34;;;;;;;8.07;4.38;;;10.10;90.40;;;;;;5130231;27;20031;-78
2022/02/28 10:19:01;;;;;;;7.57;4.85;;;10.20;90.40;;;;;;5112163;28;20035;-78
2022/02/28 10:21:48;;;;;;;7.22;4.72;;;10.20;90.50;;;;;;5129208;27;20387;-77
2022/02/28 10:24:18;;;;;;;8.30;5.40;;;10.20;90.40;;;;;;5129269;27;20039;-78
2022/02/28 10:26:49;;;;;;;7.70;5.35;;;10.30;90.40;;;;;;5113320;27;20041;-77
2022/02/28 10:29:17;;;;;;;9.18;5.32;;;10.30;90.70;;;;;;5096292;28;20058;-78
2022/02/28 10:31:45;;;;;;;8.05;4.68;;;10.30;90.30;;;;;;5129303;27;20045;-78
2022/02/28 10:34:15;;;;;;;6.97;4.20;;;10.30;90.30;;;;;;5124692;27;20031;-78
2022/02/28 10:36:59;;;;;;;7.22;4.28;;;10.30;90.30;;;;;;5127492;27;20517;-77
2022/02/28 10:39:30;;;;;;;6.90;4.10;;;10.30;90.40;;;;;;5129840;27;20031;-78
2022/02/28 10:42:04;;;;;;;5.90;3.95;;;10.40;90.30;;;;;;5130268;27;20023;-77
2022/02/28 10:44:30;;;;;;;5.57;4.38;;;10.40;90.30;;;;;;5113965;27;20043;-78
2022/02/28 10:46:55;;;;;;;6.32;4.03;;;10.50;90.40;;;;;;5132550;27;20031;-78
2022/02/28 10:49:27;;;;;;;7.30;4.40;;;10.50;90.30;;;;;;5132979;27;20027;-78
2022/02/28 10:51:57;;;;;;;7.68;4.78;;;10.50;90.30;;;;;;5132467;27;20027;-78
2022/02/28 10:54:31;;;;;;;7.43;4.80;;;10.50;90.40;;;;;;5133880;27;20058;-77
2022/02/28 10:56:59;;;;;;;6.00;4.32;;;10.50;90.50;;;;;;5134711;27;20027;-78
2022/02/28 10:59:30;;;;;;;7.45;5.35;;;10.50;90.50;;;;;;5135948;27;20256;-77
2022/02/28 11:01:57;;;;;;;7.40;4.82;;;10.60;90.50;;;;;;5135007;27;20015;-77
2022/02/28 11:04:33;;;;;;;8.13;5.25;;;10.60;90.40;;;;;;5132056;27;20430;-78
2022/02/28 11:07:00;;;;;;;8.23;5.50;;;10.70;90.30;;;;;;5141565;27;20023;-78
2022/02/28 11:09:34;;;;;;;8.18;5.60;;;10.80;90.50;;;;;;5136754;27;20098;-78
2022/02/28 11:12:29;;;;;;;8.30;5.85;;;10.90;90.60;;;;;;5117356;27;20042;-77
2022/02/28 11:14:59;;;;;;;9.38;5.78;;;11.20;90.70;;;;;;5131507;27;20031;-78
2022/02/28 11:17:31;;;;;;;8.65;5.45;;;11.40;90.70;;;;;;5135154;27;20050;-77
2022/02/28 11:19:59;;;;;;;8.75;5.43;;;11.60;90.70;;;;;;5133145;27;20533;-77
2022/02/28 11:22:26;;;;;;;6.88;4.63;;;11.90;90.70;;;;;;5120322;27;20053;-76
2022/02/28 11:24:54;;;;;;;6.85;4.70;;;12.10;90.50;;;;;;5131513;27;20098;-77
2022/02/28 11:27:21;;;;;;;8.52;4.85;;;12.20;89.50;;;;;;5136983;27;20015;-76
2022/02/28 11:29:58;;;;;;;7.25;4.63;;;12.30;89.60;;;;;;5136134;27;20023;-79
2022/02/28 11:32:26;;;;;;;6.47;4.22;;;12.40;89.20;;;;;;5133917;27;20399;-76
2022/02/28 11:34:54;;;;;;;4.82;3.72;;;12.50;88.70;;;;;;5132803;27;20035;-76
2022/02/28 11:37:25;;;;;;;6.22;3.80;;;12.60;89.30;;;;;;5114679;27;20142;-79
2022/02/28 11:40:01;;;;;;;5.93;3.45;;;12.70;88.70;;;;;;5130641;27;20019;-77
2022/02/28 11:43:04;;;;;;;5.03;3.40;;;12.70;87.80;;;;;;5129936;27;20055;-76
2022/02/28 11:45:32;;;;;;;7.00;3.47;;;12.80;88.40;;;;;;5119704;27;20815;-77
2022/02/28 11:48:26;;;;;;;6.18;3.35;;;12.80;87.50;;;;;;5132187;27;20015;-77
2022/02/28 11:50:53;;;;;;;7.43;3.60;;;12.80;87.40;;;;;;5134273;27;20030;-77
2022/02/28 11:53:40;;;;;;;6.20;3.50;;;12.70;86.80;;;;;;5113579;27;20019;-77
2022/02/28 11:56:18;;;;;;;5.03;3.65;;;12.60;86.70;;;;;;5109904;27;20099;-78
2022/02/28 11:58:49;;;;;;;6.25;3.17;;;12.40;87.40;;;;;;5127572;27;20023;-76
2022/02/28 12:01:17;;;;;;;7.28;4.05;;;12.50;88.10;;;;;;5120607;27;20038;-76
2022/02/28 12:04:08;;;;;;;5.78;3.67;;;12.40;86.90;;;;;;5130593;27;20019;-77
2022/02/28 12:07:01;;;;;;;5.30;3.50;;;12.30;87.40;;;;;;5132045;27;20038;-76
2022/02/28 12:09:36;;;;;;;5.72;3.50;;;12.30;87.80;;;;;;5100199;27;20106;-77
2022/02/28 12:12:13;;;;;;;6.25;3.50;;;12.30;88.10;;;;;;5131978;27;20069;-76
2022/02/28 12:15:00;;;;;;;5.35;3.17;;;12.40;88.40;;;;;;5130225;27;20114;-77
2022/02/28 12:17:42;;;;;;;5.35;3.00;;;12.40;88.10;;;;;;5112988;27;20038;-77
2022/02/28 12:20:20;;;;;;;6.63;3.63;;;12.40;88.00;;;;;;5130571;27;20035;-79
2022/02/28 12:22:52;;;;;;;7.40;3.85;;;12.40;88.10;;;;;;5115973;27;20487;-77
2022/02/28 12:25:59;;;;;;;7.55;3.60;;;12.40;87.90;;;;;;5111774;27;20360;-77
2022/02/28 12:28:36;;;;;;;5.55;3.35;;;12.50;88.50;;;;;;5121065;27;20087;-77
2022/02/28 12:31:13;;;;;;;6.43;2.70;;;12.60;88.20;;;;;;5130762;27;20023;-78
2022/02/28 12:33:41;;;;;;;4.65;2.45;;;12.80;88.40;;;;;;5131282;27;20027;-77
2022/02/28 12:36:17;;;;;;;6.15;2.53;;;12.90;87.40;;;;;;5112292;27;20043;-77
2022/02/28 12:38:46;;;;;;;4.95;1.83;;;13.10;87.80;;;;;;5127853;27;20024;-77
2022/02/28 12:41:24;;;;;;;3.75;1.70;;;13.20;86.80;;;;;;5132079;27;20027;-78
2022/02/28 12:43:51;;;;;;;4.13;1.88;;;13.30;86.20;;;;;;5128624;27;20047;-78
2022/02/28 12:46:21;;;;;;;3.78;1.80;;;13.30;84.80;;;;;;5113493;27;20026;-78
2022/02/28 12:48:48;;;;;;;5.03;1.65;;;13.20;84.60;;;;;;5112506;27;20031;-78
2022/02/28 12:51:16;;;;;;;3.72;1.65;;;13.30;85.60;;;;;;5130978;27;20028;-78
2022/02/28 12:53:46;;;;;;;3.25;1.58;;;13.40;85.90;;;;;;5132187;27;20750;-78